sensor_id;sensor_type;location;lat;lon;timestamp;P1;durP1;ratioP1;P2;durP2;ratioP2
50880;SDS011;36858;47.832;-3.800;2023-09-19T00:01:40;6.47;;;1.10;;
50880;SDS011;36858;47.832;-3.800;2023-09-19T00:04:07;4.27;;;1.50;;
50880;SDS011;36858;47.832;-3.800;2023-09-19T00:06:36;4.13;;;1.30;;
50880;SDS011;36858;47.832;-3.800;2023-09-19T00:09:03;4.67;;;1.20;;
50880;SDS011;36858;47.832;-3.800;2023-09-19T00:11:31;9.77;;;1.70;;
50880;SDS011;36858;47.832;-3.800;2023-09-19T00:13:58;5.20;;;1.47;;
50880;SDS011;36858;47.832;-3.800;2023-09-19T00:16:28;5.37;;;1.67;;
50880;SDS011;36858;47.832;-3.800;2023-09-19T00:18:55;3.47;;;1.60;;
50880;SDS011;36858;47.832;-3.800;2023-09-19T00:21:21;5.50;;;1.33;;
50880;SDS011;36858;47.832;-3.800;2023-09-19T00:23:48;6.37;;;1.47;;
50880;SDS011;36858;47.832;-3.800;2023-09-19T00:26:18;5.57;;;1.50;;
50880;SDS011;36858;47.832;-3.800;2023-09-19T00:28:44;4.37;;;1.40;;
50880;SDS011;36858;47.832;-3.800;2023-09-19T00:31:11;5.63;;;1.37;;
50880;SDS011;36858;47.832;-3.800;2023-09-19T00:33:38;3.27;;;1.60;;
50880;SDS011;36858;47.832;-3.800;2023-09-19T00:36:06;6.70;;;1.60;;
50880;SDS011;36858;47.832;-3.800;2023-09-19T00:38:32;3.67;;;1.70;;
50880;SDS011;36858;47.832;-3.800;2023-09-19T00:40:59;4.80;;;1.57;;
50880;SDS011;36858;47.832;-3.800;2023-09-19T00:43:26;6.03;;;1.90;;
50880;SDS011;36858;47.832;-3.800;2023-09-19T00:45:55;3.87;;;1.37;;
50880;SDS011;36858;47.832;-3.800;2023-09-19T00:48:22;5.43;;;1.40;;
50880;SDS011;36858;47.832;-3.800;2023-09-19T00:50:51;4.93;;;1.77;;
50880;SDS011;36858;47.832;-3.800;2023-09-19T00:53:21;5.27;;;1.63;;
50880;SDS011;36858;47.832;-3.800;2023-09-19T00:55:49;5.97;;;1.20;;
50880;SDS011;36858;47.832;-3.800;2023-09-19T00:58:18;5.80;;;1.40;;
50880;SDS011;36858;47.832;-3.800;2023-09-19T01:00:46;5.03;;;1.77;;
50880;SDS011;36858;47.832;-3.800;2023-09-19T01:03:14;6.10;;;1.70;;
50880;SDS011;36858;47.832;-3.800;2023-09-19T01:05:41;7.50;;;2.27;;
50880;SDS011;36858;47.832;-3.800;2023-09-19T01:08:09;3.40;;;1.43;;
50880;SDS011;36858;47.832;-3.800;2023-09-19T01:10:40;7.70;;;1.70;;
50880;SDS011;36858;47.832;-3.800;2023-09-19T01:13:26;9.07;;;1.90;;
50880;SDS011;36858;47.832;-3.800;2023-09-19T01:16:01;8.50;;;1.63;;
50880;SDS011;36858;47.832;-3.800;2023-09-19T01:18:45;6.67;;;1.73;;
50880;SDS011;36858;47.832;-3.800;2023-09-19T01:29:17;6.47;;;2.27;;
50880;SDS011;36858;47.832;-3.800;2023-09-19T01:31:57;8.70;;;2.00;;
50880;SDS011;36858;47.832;-3.800;2023-09-19T01:34:43;8.00;;;2.00;;
50880;SDS011;36858;47.832;-3.800;2023-09-19T01:37:13;7.83;;;1.80;;
50880;SDS011;36858;47.832;-3.800;2023-09-19T01:39:40;6.83;;;2.10;;
50880;SDS011;36858;47.832;-3.800;2023-09-19T01:47:33;6.20;;;1.67;;
50880;SDS011;36858;47.832;-3.800;2023-09-19T01:56:22;9.57;;;2.30;;
50880;SDS011;36858;47.832;-3.800;2023-09-19T01:58:53;7.10;;;2.07;;
50880;SDS011;36858;47.832;-3.800;2023-09-19T02:01:22;6.83;;;2.20;;
50880;SDS011;36858;47.832;-3.800;2023-09-19T02:03:49;7.63;;;2.03;;
50880;SDS011;36858;47.832;-3.800;2023-09-19T02:06:17;9.20;;;1.80;;
50880;SDS011;36858;47.832;-3.800;2023-09-19T02:08:45;9.30;;;1.67;;
50880;SDS011;36858;47.832;-3.800;2023-09-19T02:11:13;6.73;;;1.83;;
50880;SDS011;36858;47.832;-3.800;2023-09-19T02:13:41;7.63;;;2.17;;
50880;SDS011;36858;47.832;-3.800;2023-09-19T02:16:09;6.93;;;2.20;;
50880;SDS011;36858;47.832;-3.800;2023-09-19T02:18:38;10.13;;;2.67;;
50880;SDS011;36858;47.832;-3.800;2023-09-19T02:21:05;6.07;;;2.20;;
50880;SDS011;36858;47.832;-3.800;2023-09-19T02:23:38;7.80;;;2.10;;
50880;SDS011;36858;47.832;-3.800;2023-09-19T02:26:06;7.30;;;1.70;;
50880;SDS011;36858;47.832;-3.800;2023-09-19T02:28:33;9.60;;;2.20;;
50880;SDS011;36858;47.832;-3.800;2023-09-19T02:31:02;8.93;;;2.03;;
50880;SDS011;36858;47.832;-3.800;2023-09-19T02:33:31;11.67;;;2.73;;
50880;SDS011;36858;47.832;-3.800;2023-09-19T02:35:59;8.50;;;1.90;;
50880;SDS011;36858;47.832;-3.800;2023-09-19T02:38:27;11.17;;;2.53;;
50880;SDS011;36858;47.832;-3.800;2023-09-19T02:40:55;7.00;;;2.10;;
50880;SDS011;36858;47.832;-3.800;2023-09-19T02:43:23;10.63;;;2.13;;
50880;SDS011;36858;47.832;-3.800;2023-09-19T02:45:50;7.20;;;1.80;;
50880;SDS011;36858;47.832;-3.800;2023-09-19T02:48:19;8.40;;;2.40;;
50880;SDS011;36858;47.832;-3.800;2023-09-19T02:50:50;12.27;;;2.43;;
50880;SDS011;36858;47.832;-3.800;2023-09-19T02:53:17;11.73;;;2.33;;
50880;SDS011;36858;47.832;-3.800;2023-09-19T02:55:46;9.87;;;2.20;;
50880;SDS011;36858;47.832;-3.800;2023-09-19T02:58:13;8.87;;;2.30;;
50880;SDS011;36858;47.832;-3.800;2023-09-19T03:00:41;7.17;;;2.70;;
50880;SDS011;36858;47.832;-3.800;2023-09-19T03:03:09;9.93;;;3.20;;
50880;SDS011;36858;47.832;-3.800;2023-09-19T03:05:36;9.77;;;2.47;;
50880;SDS011;36858;47.832;-3.800;2023-09-19T03:08:04;8.97;;;2.13;;
50880;SDS011;36858;47.832;-3.800;2023-09-19T03:10:32;10.53;;;2.00;;
50880;SDS011;36858;47.832;-3.800;2023-09-19T03:12:59;7.70;;;2.30;;
50880;SDS011;36858;47.832;-3.800;2023-09-19T03:15:26;10.57;;;1.80;;
50880;SDS011;36858;47.832;-3.800;2023-09-19T03:17:53;8.30;;;1.80;;
50880;SDS011;36858;47.832;-3.800;2023-09-19T03:20:21;8.17;;;1.73;;
50880;SDS011;36858;47.832;-3.800;2023-09-19T03:22:49;8.83;;;2.07;;
50880;SDS011;36858;47.832;-3.800;2023-09-19T03:25:16;9.10;;;2.37;;
50880;SDS011;36858;47.832;-3.800;2023-09-19T03:27:44;10.27;;;2.60;;
50880;SDS011;36858;47.832;-3.800;2023-09-19T03:30:12;10.00;;;2.20;;
50880;SDS011;36858;47.832;-3.800;2023-09-19T03:32:44;7.87;;;1.80;;
50880;SDS011;36858;47.832;-3.800;2023-09-19T03:35:12;4.20;;;1.60;;
50880;SDS011;36858;47.832;-3.800;2023-09-19T03:37:41;7.17;;;1.93;;
50880;SDS011;36858;47.832;-3.800;2023-09-19T03:40:08;10.70;;;2.50;;
50880;SDS011;36858;47.832;-3.800;2023-09-19T03:42:40;7.73;;;2.90;;
50880;SDS011;36858;47.832;-3.800;2023-09-19T03:45:08;8.80;;;1.80;;
50880;SDS011;36858;47.832;-3.800;2023-09-19T03:47:44;9.70;;;1.70;;
50880;SDS011;36858;47.832;-3.800;2023-09-19T03:50:14;6.67;;;1.70;;
50880;SDS011;36858;47.832;-3.800;2023-09-19T03:52:44;12.40;;;2.83;;
50880;SDS011;36858;47.832;-3.800;2023-09-19T03:55:11;6.57;;;1.63;;
50880;SDS011;36858;47.832;-3.800;2023-09-19T03:57:39;6.40;;;2.10;;
50880;SDS011;36858;47.832;-3.800;2023-09-19T04:00:06;9.50;;;2.37;;
50880;SDS011;36858;47.832;-3.800;2023-09-19T04:02:41;9.67;;;2.50;;
50880;SDS011;36858;47.832;-3.800;2023-09-19T04:05:08;9.77;;;2.00;;
50880;SDS011;36858;47.832;-3.800;2023-09-19T04:07:35;6.50;;;2.30;;
50880;SDS011;36858;47.832;-3.800;2023-09-19T04:10:02;11.53;;;2.20;;
50880;SDS011;36858;47.832;-3.800;2023-09-19T04:12:29;11.23;;;2.60;;
50880;SDS011;36858;47.832;-3.800;2023-09-19T04:14:56;7.13;;;2.10;;
50880;SDS011;36858;47.832;-3.800;2023-09-19T04:17:23;5.87;;;1.93;;
50880;SDS011;36858;47.832;-3.800;2023-09-19T04:19:50;12.87;;;2.10;;
50880;SDS011;36858;47.832;-3.800;2023-09-19T04:22:17;10.43;;;1.97;;
50880;SDS011;36858;47.832;-3.800;2023-09-19T04:24:44;9.30;;;2.17;;
50880;SDS011;36858;47.832;-3.800;2023-09-19T04:27:11;5.40;;;1.50;;
50880;SDS011;36858;47.832;-3.800;2023-09-19T04:29:41;5.87;;;1.63;;
50880;SDS011;36858;47.832;-3.800;2023-09-19T04:32:08;9.47;;;2.07;;
50880;SDS011;36858;47.832;-3.800;2023-09-19T04:34:36;9.17;;;2.40;;
50880;SDS011;36858;47.832;-3.800;2023-09-19T04:37:06;9.77;;;1.60;;
50880;SDS011;36858;47.832;-3.800;2023-09-19T04:39:33;9.93;;;2.50;;
50880;SDS011;36858;47.832;-3.800;2023-09-19T04:42:00;12.03;;;2.40;;
50880;SDS011;36858;47.832;-3.800;2023-09-19T04:44:27;7.63;;;2.00;;
50880;SDS011;36858;47.832;-3.800;2023-09-19T04:46:54;12.30;;;1.90;;
50880;SDS011;36858;47.832;-3.800;2023-09-19T04:49:21;8.10;;;2.33;;
50880;SDS011;36858;47.832;-3.800;2023-09-19T04:51:48;10.90;;;2.43;;
50880;SDS011;36858;47.832;-3.800;2023-09-19T04:54:15;6.30;;;2.20;;
50880;SDS011;36858;47.832;-3.800;2023-09-19T04:56:42;10.63;;;2.67;;
50880;SDS011;36858;47.832;-3.800;2023-09-19T04:59:09;10.03;;;2.20;;
50880;SDS011;36858;47.832;-3.800;2023-09-19T05:01:37;7.53;;;2.87;;
50880;SDS011;36858;47.832;-3.800;2023-09-19T05:04:04;10.53;;;2.80;;
50880;SDS011;36858;47.832;-3.800;2023-09-19T05:06:31;8.33;;;2.30;;
50880;SDS011;36858;47.832;-3.800;2023-09-19T05:09:00;7.77;;;2.20;;
50880;SDS011;36858;47.832;-3.800;2023-09-19T05:11:27;7.97;;;2.10;;
50880;SDS011;36858;47.832;-3.800;2023-09-19T05:13:56;7.93;;;1.67;;
50880;SDS011;36858;47.832;-3.800;2023-09-19T05:16:24;7.47;;;2.00;;
50880;SDS011;36858;47.832;-3.800;2023-09-19T05:18:51;7.70;;;1.90;;
50880;SDS011;36858;47.832;-3.800;2023-09-19T05:21:18;9.17;;;2.30;;
50880;SDS011;36858;47.832;-3.800;2023-09-19T05:23:45;10.97;;;2.27;;
50880;SDS011;36858;47.832;-3.800;2023-09-19T05:26:12;7.83;;;2.27;;
50880;SDS011;36858;47.832;-3.800;2023-09-19T05:28:39;11.23;;;2.30;;
50880;SDS011;36858;47.832;-3.800;2023-09-19T05:31:06;9.27;;;2.33;;
50880;SDS011;36858;47.832;-3.800;2023-09-19T05:33:33;8.27;;;1.93;;
50880;SDS011;36858;47.832;-3.800;2023-09-19T05:36:00;9.10;;;2.00;;
50880;SDS011;36858;47.832;-3.800;2023-09-19T05:38:27;8.63;;;2.00;;
50880;SDS011;36858;47.832;-3.800;2023-09-19T05:40:54;6.80;;;2.10;;
50880;SDS011;36858;47.832;-3.800;2023-09-19T05:43:21;9.07;;;2.73;;
50880;SDS011;36858;47.832;-3.800;2023-09-19T05:45:48;9.63;;;2.83;;
50880;SDS011;36858;47.832;-3.800;2023-09-19T05:48:18;7.40;;;2.37;;
50880;SDS011;36858;47.832;-3.800;2023-09-19T05:50:47;13.83;;;2.87;;
50880;SDS011;36858;47.832;-3.800;2023-09-19T05:53:17;11.53;;;2.37;;
50880;SDS011;36858;47.832;-3.800;2023-09-19T05:55:45;12.03;;;2.63;;
50880;SDS011;36858;47.832;-3.800;2023-09-19T05:58:12;8.87;;;2.63;;
50880;SDS011;36858;47.832;-3.800;2023-09-19T06:00:40;9.77;;;2.50;;
50880;SDS011;36858;47.832;-3.800;2023-09-19T06:03:09;10.23;;;2.57;;
50880;SDS011;36858;47.832;-3.800;2023-09-19T06:05:36;10.10;;;2.17;;
50880;SDS011;36858;47.832;-3.800;2023-09-19T06:08:06;13.70;;;2.77;;
50880;SDS011;36858;47.832;-3.800;2023-09-19T06:10:34;11.73;;;3.47;;
50880;SDS011;36858;47.832;-3.800;2023-09-19T06:13:02;12.07;;;3.37;;
50880;SDS011;36858;47.832;-3.800;2023-09-19T06:15:32;13.17;;;2.73;;
50880;SDS011;36858;47.832;-3.800;2023-09-19T06:18:01;15.53;;;3.37;;
50880;SDS011;36858;47.832;-3.800;2023-09-19T06:20:32;15.27;;;3.30;;
50880;SDS011;36858;47.832;-3.800;2023-09-19T06:23:00;9.80;;;2.57;;
50880;SDS011;36858;47.832;-3.800;2023-09-19T06:25:28;14.47;;;3.90;;
50880;SDS011;36858;47.832;-3.800;2023-09-19T06:27:56;9.50;;;2.40;;
50880;SDS011;36858;47.832;-3.800;2023-09-19T06:30:23;12.30;;;2.83;;
50880;SDS011;36858;47.832;-3.800;2023-09-19T06:32:58;11.23;;;3.40;;
50880;SDS011;36858;47.832;-3.800;2023-09-19T06:35:26;11.27;;;2.80;;
50880;SDS011;36858;47.832;-3.800;2023-09-19T06:37:53;9.90;;;2.57;;
50880;SDS011;36858;47.832;-3.800;2023-09-19T06:40:21;7.40;;;2.37;;
50880;SDS011;36858;47.832;-3.800;2023-09-19T06:42:51;9.17;;;2.60;;
50880;SDS011;36858;47.832;-3.800;2023-09-19T06:45:19;9.77;;;2.93;;
50880;SDS011;36858;47.832;-3.800;2023-09-19T06:47:49;9.80;;;2.10;;
50880;SDS011;36858;47.832;-3.800;2023-09-19T06:50:18;6.10;;;2.13;;
50880;SDS011;36858;47.832;-3.800;2023-09-19T06:52:52;6.80;;;1.97;;
50880;SDS011;36858;47.832;-3.800;2023-09-19T06:55:21;9.97;;;3.30;;
50880;SDS011;36858;47.832;-3.800;2023-09-19T06:57:51;9.87;;;2.40;;
50880;SDS011;36858;47.832;-3.800;2023-09-19T07:00:21;7.17;;;2.23;;
50880;SDS011;36858;47.832;-3.800;2023-09-19T07:02:57;8.80;;;2.47;;
50880;SDS011;36858;47.832;-3.800;2023-09-19T07:05:31;10.90;;;2.77;;
50880;SDS011;36858;47.832;-3.800;2023-09-19T07:08:01;8.83;;;2.00;;
50880;SDS011;36858;47.832;-3.800;2023-09-19T07:10:29;10.37;;;2.60;;
50880;SDS011;36858;47.832;-3.800;2023-09-19T07:13:01;8.07;;;1.97;;
50880;SDS011;36858;47.832;-3.800;2023-09-19T07:15:35;7.47;;;2.20;;
50880;SDS011;36858;47.832;-3.800;2023-09-19T07:18:06;10.60;;;2.50;;
50880;SDS011;36858;47.832;-3.800;2023-09-19T07:20:35;11.63;;;2.73;;
50880;SDS011;36858;47.832;-3.800;2023-09-19T07:23:03;8.40;;;2.07;;
50880;SDS011;36858;47.832;-3.800;2023-09-19T07:25:30;15.30;;;2.43;;
50880;SDS011;36858;47.832;-3.800;2023-09-19T07:27:58;5.73;;;2.33;;
50880;SDS011;36858;47.832;-3.800;2023-09-19T07:30:27;7.20;;;2.30;;
50880;SDS011;36858;47.832;-3.800;2023-09-19T07:32:54;9.90;;;2.10;;
50880;SDS011;36858;47.832;-3.800;2023-09-19T07:35:21;7.73;;;1.83;;
50880;SDS011;36858;47.832;-3.800;2023-09-19T07:37:49;9.00;;;2.33;;
50880;SDS011;36858;47.832;-3.800;2023-09-19T07:40:17;8.13;;;3.47;;
50880;SDS011;36858;47.832;-3.800;2023-09-19T07:42:45;8.97;;;2.70;;
50880;SDS011;36858;47.832;-3.800;2023-09-19T07:45:13;8.70;;;2.27;;
50880;SDS011;36858;47.832;-3.800;2023-09-19T07:47:44;8.07;;;2.53;;
50880;SDS011;36858;47.832;-3.800;2023-09-19T07:50:14;11.23;;;2.50;;
50880;SDS011;36858;47.832;-3.800;2023-09-19T07:52:47;7.43;;;2.23;;
50880;SDS011;36858;47.832;-3.800;2023-09-19T07:55:17;6.90;;;1.90;;
50880;SDS011;36858;47.832;-3.800;2023-09-19T07:57:46;8.03;;;2.50;;
50880;SDS011;36858;47.832;-3.800;2023-09-19T08:00:13;7.10;;;2.43;;
50880;SDS011;36858;47.832;-3.800;2023-09-19T08:02:41;4.97;;;2.20;;
50880;SDS011;36858;47.832;-3.800;2023-09-19T08:05:09;9.07;;;2.83;;
50880;SDS011;36858;47.832;-3.800;2023-09-19T08:07:37;11.93;;;3.33;;
50880;SDS011;36858;47.832;-3.800;2023-09-19T08:10:05;8.67;;;2.43;;
50880;SDS011;36858;47.832;-3.800;2023-09-19T08:12:39;10.53;;;2.50;;
50880;SDS011;36858;47.832;-3.800;2023-09-19T08:15:13;8.07;;;2.33;;
50880;SDS011;36858;47.832;-3.800;2023-09-19T08:17:41;7.90;;;2.57;;
50880;SDS011;36858;47.832;-3.800;2023-09-19T08:20:09;11.80;;;3.33;;
50880;SDS011;36858;47.832;-3.800;2023-09-19T08:22:52;9.17;;;2.67;;
50880;SDS011;36858;47.832;-3.800;2023-09-19T08:25:21;8.03;;;2.40;;
50880;SDS011;36858;47.832;-3.800;2023-09-19T08:27:49;9.37;;;3.10;;
50880;SDS011;36858;47.832;-3.800;2023-09-19T08:30:18;13.07;;;4.23;;
50880;SDS011;36858;47.832;-3.800;2023-09-19T08:32:51;5.93;;;2.17;;
50880;SDS011;36858;47.832;-3.800;2023-09-19T08:35:23;9.03;;;2.77;;
50880;SDS011;36858;47.832;-3.800;2023-09-19T08:37:50;6.37;;;2.40;;
50880;SDS011;36858;47.832;-3.800;2023-09-19T08:40:18;10.50;;;2.90;;
50880;SDS011;36858;47.832;-3.800;2023-09-19T08:42:48;15.90;;;3.33;;
50880;SDS011;36858;47.832;-3.800;2023-09-19T08:45:16;11.10;;;3.07;;
50880;SDS011;36858;47.832;-3.800;2023-09-19T08:47:45;12.40;;;2.97;;
50880;SDS011;36858;47.832;-3.800;2023-09-19T08:50:18;15.60;;;3.03;;
50880;SDS011;36858;47.832;-3.800;2023-09-19T08:52:49;11.23;;;3.13;;
50880;SDS011;36858;47.832;-3.800;2023-09-19T08:55:23;14.40;;;3.27;;
50880;SDS011;36858;47.832;-3.800;2023-09-19T08:57:59;8.47;;;3.17;;
50880;SDS011;36858;47.832;-3.800;2023-09-19T09:00:30;8.53;;;3.07;;
50880;SDS011;36858;47.832;-3.800;2023-09-19T09:02:58;9.70;;;2.90;;
50880;SDS011;36858;47.832;-3.800;2023-09-19T09:05:25;8.97;;;3.00;;
50880;SDS011;36858;47.832;-3.800;2023-09-19T09:07:52;9.40;;;2.83;;
50880;SDS011;36858;47.832;-3.800;2023-09-19T09:10:23;8.97;;;3.47;;
50880;SDS011;36858;47.832;-3.800;2023-09-19T09:12:51;11.13;;;3.30;;
50880;SDS011;36858;47.832;-3.800;2023-09-19T09:15:18;14.83;;;3.67;;
50880;SDS011;36858;47.832;-3.800;2023-09-19T09:17:47;8.10;;;3.43;;
50880;SDS011;36858;47.832;-3.800;2023-09-19T09:20:19;11.07;;;3.07;;
50880;SDS011;36858;47.832;-3.800;2023-09-19T09:22:56;8.60;;;2.63;;
50880;SDS011;36858;47.832;-3.800;2023-09-19T09:28:23;7.93;;;3.10;;
50880;SDS011;36858;47.832;-3.800;2023-09-19T09:30:51;14.80;;;3.23;;
50880;SDS011;36858;47.832;-3.800;2023-09-19T09:33:18;9.37;;;3.00;;
50880;SDS011;36858;47.832;-3.800;2023-09-19T09:35:52;6.43;;;2.20;;
50880;SDS011;36858;47.832;-3.800;2023-09-19T09:38:25;10.53;;;2.83;;
50880;SDS011;36858;47.832;-3.800;2023-09-19T09:40:59;9.50;;;2.93;;
50880;SDS011;36858;47.832;-3.800;2023-09-19T09:43:37;11.27;;;3.00;;
50880;SDS011;36858;47.832;-3.800;2023-09-19T09:46:10;10.33;;;2.83;;
50880;SDS011;36858;47.832;-3.800;2023-09-19T09:49:02;7.80;;;2.33;;
50880;SDS011;36858;47.832;-3.800;2023-09-19T09:55:04;9.50;;;3.03;;
50880;SDS011;36858;47.832;-3.800;2023-09-19T09:57:35;8.97;;;3.77;;
50880;SDS011;36858;47.832;-3.800;2023-09-19T10:00:02;14.67;;;3.43;;
50880;SDS011;36858;47.832;-3.800;2023-09-19T10:02:43;12.87;;;3.50;;
50880;SDS011;36858;47.832;-3.800;2023-09-19T10:05:14;8.63;;;3.03;;
50880;SDS011;36858;47.832;-3.800;2023-09-19T10:07:59;9.67;;;2.93;;
50880;SDS011;36858;47.832;-3.800;2023-09-19T10:10:39;8.00;;;2.57;;
50880;SDS011;36858;47.832;-3.800;2023-09-19T10:13:11;9.30;;;2.63;;
50880;SDS011;36858;47.832;-3.800;2023-09-19T10:15:42;11.63;;;3.33;;
50880;SDS011;36858;47.832;-3.800;2023-09-19T10:18:15;12.20;;;2.50;;
50880;SDS011;36858;47.832;-3.800;2023-09-19T10:20:47;8.90;;;3.20;;
50880;SDS011;36858;47.832;-3.800;2023-09-19T10:23:16;7.90;;;2.53;;
50880;SDS011;36858;47.832;-3.800;2023-09-19T10:25:49;12.73;;;3.27;;
50880;SDS011;36858;47.832;-3.800;2023-09-19T10:28:17;11.20;;;2.97;;
50880;SDS011;36858;47.832;-3.800;2023-09-19T10:30:50;9.90;;;2.93;;
50880;SDS011;36858;47.832;-3.800;2023-09-19T10:33:18;7.73;;;3.43;;
50880;SDS011;36858;47.832;-3.800;2023-09-19T10:35:52;9.63;;;3.13;;
50880;SDS011;36858;47.832;-3.800;2023-09-19T10:38:24;9.97;;;2.90;;
50880;SDS011;36858;47.832;-3.800;2023-09-19T10:40:53;8.70;;;2.60;;
50880;SDS011;36858;47.832;-3.800;2023-09-19T10:43:25;9.93;;;3.33;;
50880;SDS011;36858;47.832;-3.800;2023-09-19T10:45:52;10.60;;;2.60;;
50880;SDS011;36858;47.832;-3.800;2023-09-19T10:48:20;11.37;;;3.50;;
50880;SDS011;36858;47.832;-3.800;2023-09-19T10:53:43;11.90;;;3.50;;
50880;SDS011;36858;47.832;-3.800;2023-09-19T10:56:27;10.57;;;3.87;;
50880;SDS011;36858;47.832;-3.800;2023-09-19T10:59:08;17.80;;;4.70;;
50880;SDS011;36858;47.832;-3.800;2023-09-19T11:01:47;10.03;;;3.80;;
50880;SDS011;36858;47.832;-3.800;2023-09-19T11:07:01;11.13;;;3.60;;
50880;SDS011;36858;47.832;-3.800;2023-09-19T11:16:18;8.50;;;3.83;;
50880;SDS011;36858;47.832;-3.800;2023-09-19T11:26:49;12.10;;;4.30;;
50880;SDS011;36858;47.832;-3.800;2023-09-19T11:29:25;14.00;;;4.20;;
50880;SDS011;36858;47.832;-3.800;2023-09-19T11:31:57;10.53;;;4.23;;
50880;SDS011;36858;47.832;-3.800;2023-09-19T11:34:37;13.70;;;3.93;;
50880;SDS011;36858;47.832;-3.800;2023-09-19T11:39:40;10.13;;;4.07;;
50880;SDS011;36858;47.832;-3.800;2023-09-19T11:42:43;10.13;;;4.00;;
50880;SDS011;36858;47.832;-3.800;2023-09-19T11:48:24;12.73;;;4.63;;
50880;SDS011;36858;47.832;-3.800;2023-09-19T11:50:51;13.80;;;3.73;;
50880;SDS011;36858;47.832;-3.800;2023-09-19T11:53:20;9.20;;;4.37;;
50880;SDS011;36858;47.832;-3.800;2023-09-19T11:55:48;9.10;;;3.77;;
50880;SDS011;36858;47.832;-3.800;2023-09-19T11:58:15;10.80;;;3.70;;
50880;SDS011;36858;47.832;-3.800;2023-09-19T12:00:43;15.20;;;4.47;;
50880;SDS011;36858;47.832;-3.800;2023-09-19T12:03:12;9.60;;;3.73;;
50880;SDS011;36858;47.832;-3.800;2023-09-19T12:05:41;11.57;;;4.17;;
50880;SDS011;36858;47.832;-3.800;2023-09-19T12:08:08;11.37;;;5.67;;
50880;SDS011;36858;47.832;-3.800;2023-09-19T12:10:45;10.60;;;4.07;;
50880;SDS011;36858;47.832;-3.800;2023-09-19T12:13:17;9.67;;;4.13;;
50880;SDS011;36858;47.832;-3.800;2023-09-19T12:15:44;10.93;;;4.33;;
50880;SDS011;36858;47.832;-3.800;2023-09-19T12:18:27;16.33;;;4.00;;
50880;SDS011;36858;47.832;-3.800;2023-09-19T12:20:54;9.77;;;3.70;;
50880;SDS011;36858;47.832;-3.800;2023-09-19T12:23:22;11.83;;;4.33;;
50880;SDS011;36858;47.832;-3.800;2023-09-19T12:25:49;14.83;;;4.73;;
50880;SDS011;36858;47.832;-3.800;2023-09-19T12:28:21;12.17;;;4.17;;
50880;SDS011;36858;47.832;-3.800;2023-09-19T12:30:50;15.43;;;4.23;;
50880;SDS011;36858;47.832;-3.800;2023-09-19T12:33:19;12.53;;;4.43;;
50880;SDS011;36858;47.832;-3.800;2023-09-19T12:35:47;12.37;;;4.00;;
50880;SDS011;36858;47.832;-3.800;2023-09-19T12:38:27;14.57;;;4.20;;
50880;SDS011;36858;47.832;-3.800;2023-09-19T12:40:57;14.33;;;4.30;;
50880;SDS011;36858;47.832;-3.800;2023-09-19T12:43:29;13.90;;;4.00;;
50880;SDS011;36858;47.832;-3.800;2023-09-19T12:45:59;11.50;;;3.60;;
50880;SDS011;36858;47.832;-3.800;2023-09-19T12:48:27;10.33;;;3.37;;
50880;SDS011;36858;47.832;-3.800;2023-09-19T12:51:06;10.40;;;4.00;;
50880;SDS011;36858;47.832;-3.800;2023-09-19T12:53:35;12.90;;;4.27;;
50880;SDS011;36858;47.832;-3.800;2023-09-19T12:56:07;10.37;;;3.50;;
50880;SDS011;36858;47.832;-3.800;2023-09-19T13:01:21;7.23;;;3.33;;
50880;SDS011;36858;47.832;-3.800;2023-09-19T13:04:11;14.43;;;3.40;;
50880;SDS011;36858;47.832;-3.800;2023-09-19T13:06:47;10.23;;;3.53;;
50880;SDS011;36858;47.832;-3.800;2023-09-19T13:09:18;10.67;;;3.90;;
50880;SDS011;36858;47.832;-3.800;2023-09-19T13:12:01;11.20;;;3.63;;
50880;SDS011;36858;47.832;-3.800;2023-09-19T13:14:29;8.60;;;3.37;;
50880;SDS011;36858;47.832;-3.800;2023-09-19T13:17:07;9.17;;;3.33;;
50880;SDS011;36858;47.832;-3.800;2023-09-19T13:19:46;11.10;;;3.77;;
50880;SDS011;36858;47.832;-3.800;2023-09-19T13:22:43;9.60;;;3.40;;
50880;SDS011;36858;47.832;-3.800;2023-09-19T13:25:21;9.60;;;2.77;;
50880;SDS011;36858;47.832;-3.800;2023-09-19T13:27:52;17.10;;;4.67;;
50880;SDS011;36858;47.832;-3.800;2023-09-19T13:30:22;11.47;;;3.93;;
50880;SDS011;36858;47.832;-3.800;2023-09-19T13:33:04;10.30;;;2.93;;
50880;SDS011;36858;47.832;-3.800;2023-09-19T13:35:33;9.47;;;3.40;;
50880;SDS011;36858;47.832;-3.800;2023-09-19T13:38:00;8.90;;;3.67;;
50880;SDS011;36858;47.832;-3.800;2023-09-19T13:40:27;10.70;;;3.83;;
50880;SDS011;36858;47.832;-3.800;2023-09-19T13:42:57;8.60;;;3.23;;
50880;SDS011;36858;47.832;-3.800;2023-09-19T13:45:24;13.20;;;3.83;;
50880;SDS011;36858;47.832;-3.800;2023-09-19T13:47:52;14.83;;;4.10;;
50880;SDS011;36858;47.832;-3.800;2023-09-19T13:50:20;13.00;;;4.47;;
50880;SDS011;36858;47.832;-3.800;2023-09-19T13:52:51;11.73;;;3.97;;
50880;SDS011;36858;47.832;-3.800;2023-09-19T13:55:18;10.70;;;3.47;;
50880;SDS011;36858;47.832;-3.800;2023-09-19T13:57:48;11.13;;;4.53;;
50880;SDS011;36858;47.832;-3.800;2023-09-19T14:00:21;7.70;;;3.93;;
50880;SDS011;36858;47.832;-3.800;2023-09-19T14:02:49;10.87;;;4.30;;
50880;SDS011;36858;47.832;-3.800;2023-09-19T14:05:18;9.43;;;3.97;;
50880;SDS011;36858;47.832;-3.800;2023-09-19T14:07:47;12.13;;;3.83;;
50880;SDS011;36858;47.832;-3.800;2023-09-19T14:10:14;10.57;;;3.77;;
50880;SDS011;36858;47.832;-3.800;2023-09-19T14:12:44;10.20;;;4.07;;
50880;SDS011;36858;47.832;-3.800;2023-09-19T14:15:11;17.30;;;3.93;;
50880;SDS011;36858;47.832;-3.800;2023-09-19T14:17:38;13.07;;;3.97;;
50880;SDS011;36858;47.832;-3.800;2023-09-19T14:20:06;11.53;;;4.13;;
50880;SDS011;36858;47.832;-3.800;2023-09-19T14:22:33;14.67;;;4.57;;
50880;SDS011;36858;47.832;-3.800;2023-09-19T14:25:00;9.00;;;4.20;;
50880;SDS011;36858;47.832;-3.800;2023-09-19T14:27:27;15.13;;;3.77;;
50880;SDS011;36858;47.832;-3.800;2023-09-19T14:29:54;9.30;;;3.60;;
50880;SDS011;36858;47.832;-3.800;2023-09-19T14:32:21;14.20;;;4.23;;
50880;SDS011;36858;47.832;-3.800;2023-09-19T14:34:49;13.33;;;4.00;;
50880;SDS011;36858;47.832;-3.800;2023-09-19T14:37:15;15.20;;;4.60;;
50880;SDS011;36858;47.832;-3.800;2023-09-19T14:39:42;15.10;;;5.17;;
50880;SDS011;36858;47.832;-3.800;2023-09-19T14:42:12;12.73;;;4.10;;
50880;SDS011;36858;47.832;-3.800;2023-09-19T14:44:44;11.70;;;4.10;;
50880;SDS011;36858;47.832;-3.800;2023-09-19T14:47:11;11.03;;;4.23;;
50880;SDS011;36858;47.832;-3.800;2023-09-19T14:49:40;11.80;;;3.90;;
50880;SDS011;36858;47.832;-3.800;2023-09-19T14:52:08;15.67;;;4.60;;
50880;SDS011;36858;47.832;-3.800;2023-09-19T14:54:36;11.13;;;4.00;;
50880;SDS011;36858;47.832;-3.800;2023-09-19T14:57:11;16.17;;;3.80;;
50880;SDS011;36858;47.832;-3.800;2023-09-19T14:59:42;10.07;;;4.27;;
50880;SDS011;36858;47.832;-3.800;2023-09-19T15:02:10;13.10;;;3.60;;
50880;SDS011;36858;47.832;-3.800;2023-09-19T15:04:37;11.73;;;4.00;;
50880;SDS011;36858;47.832;-3.800;2023-09-19T15:07:08;11.43;;;3.60;;
50880;SDS011;36858;47.832;-3.800;2023-09-19T15:09:34;11.83;;;4.03;;
50880;SDS011;36858;47.832;-3.800;2023-09-19T15:12:02;11.40;;;3.17;;
50880;SDS011;36858;47.832;-3.800;2023-09-19T15:14:29;11.30;;;4.00;;
50880;SDS011;36858;47.832;-3.800;2023-09-19T15:16:56;8.80;;;3.37;;
50880;SDS011;36858;47.832;-3.800;2023-09-19T15:19:24;12.33;;;3.33;;
50880;SDS011;36858;47.832;-3.800;2023-09-19T15:21:54;13.40;;;3.83;;
50880;SDS011;36858;47.832;-3.800;2023-09-19T15:24:21;8.57;;;3.20;;
50880;SDS011;36858;47.832;-3.800;2023-09-19T15:26:48;8.43;;;3.03;;
50880;SDS011;36858;47.832;-3.800;2023-09-19T15:29:17;8.07;;;3.20;;
50880;SDS011;36858;47.832;-3.800;2023-09-19T15:31:44;11.43;;;3.20;;
50880;SDS011;36858;47.832;-3.800;2023-09-19T15:34:11;8.10;;;2.73;;
50880;SDS011;36858;47.832;-3.800;2023-09-19T15:36:40;11.77;;;3.40;;
50880;SDS011;36858;47.832;-3.800;2023-09-19T15:39:10;8.50;;;3.57;;